Time;durP1;ratioP1;P1;durP2;ratioP2;P2;SDS_P1;SDS_P2;PMS_P1;PMS_P2;Temp;Humidity;BMP_temperature;BMP_pressure;BME280_temperature;BME280_humidity;BME280_pressure;Samples;Min_cycle;Max_cycle;Signal;HPM_P1;HPM_P2
2023/04/13 00:01:07;;;;;;;;;;;9.20;64.20;;;4.55;100.00;94618.75;5031720;28;19911;-47
2023/04/13 00:03:35;;;;;;;;;;;9.30;64.30;;;4.57;100.00;94620.06;5031601;28;20279;-47
2023/04/13 00:06:01;;;;;;;;;;;9.30;64.40;;;4.60;100.00;94624.03;5030915;28;19944;-46
2023/04/13 00:08:29;;;;;;;;;;;9.30;64.40;;;4.63;100.00;94616.41;5031537;28;19930;-47
2023/04/13 00:10:56;;;;;;;;;;;9.30;64.40;;;4.68;100.00;94623.59;5027765;28;19958;-46
2023/04/13 00:13:23;;;;;;;;;;;9.40;64.60;;;4.78;100.00;94622.88;5010718;28;19913;-47
2023/04/13 00:15:50;;;;;;;;;;;9.40;64.80;;;4.86;100.00;94622.44;5012037;28;20279;-46
2023/04/13 00:18:16;;;;;;;;;;;9.40;64.90;;;4.95;100.00;94614.84;5021282;28;19909;-46
2023/04/13 00:20:42;;;;;;;;;;;9.50;65.00;;;5.02;100.00;94624.16;5011856;28;19911;-48
2023/04/13 00:23:08;;;;;;;;;;;9.50;65.10;;;5.08;100.00;94614.44;5020019;28;20347;-47
2023/04/13 00:25:34;;;;;;;;;;;9.60;65.30;;;5.13;100.00;94613.66;5038010;28;19992;-46
2023/04/13 00:28:05;;;;;;;;;;;9.60;65.40;;;5.19;100.00;94610.78;5037905;28;20319;-48
2023/04/13 00:30:31;;;;;;;;;;;9.60;65.40;;;5.21;100.00;94613.97;5037232;28;19904;-47
2023/04/13 00:32:57;;;;;;;;;;;9.70;65.40;;;5.25;100.00;94607.13;5037951;28;19911;-48
2023/04/13 00:35:23;;;;;;;;;;;9.70;65.40;;;5.29;100.00;94605.56;5037078;28;19908;-46
2023/04/13 00:37:50;;;;;;;;;;;9.80;65.50;;;5.29;100.00;94602.13;5037645;28;19904;-46
2023/04/13 00:40:17;;;;;;;;;;;9.80;65.40;;;5.32;100.00;94610.34;5038438;28;19935;-48
2023/04/13 00:42:49;;;;;;;;;;;9.80;65.40;;;5.28;99.52;94609.25;5037435;28;19912;-48
2023/04/13 00:45:17;;;;;;;;;;;9.80;65.30;;;5.29;99.38;94616.13;5038135;28;19909;-46
2023/04/13 00:47:46;;;;;;;;;;;9.80;65.30;;;5.32;98.07;94605.06;5037066;28;19918;-48
2023/04/13 00:50:15;;;;;;;;;;;9.80;65.30;;;5.32;97.79;94612.97;5017933;28;19909;-46
2023/04/13 00:52:41;;;;;;;;;;;9.80;65.20;;;5.32;97.65;94602.41;5019267;28;20015;-49
2023/04/13 00:55:08;;;;;;;;;;;9.80;65.20;;;5.28;95.67;94606.63;5037899;28;19909;-48
2023/04/13 00:57:35;;;;;;;;;;;9.80;65.20;;;5.29;95.86;94602.94;5037550;28;20003;-46
2023/04/13 01:00:08;;;;;;;;;;;9.80;65.10;;;5.28;96.27;94590.78;5036991;28;20390;-46
2023/04/13 01:02:35;;;;;;;;;;;9.70;64.90;;;5.23;95.61;94609.25;5037718;28;19909;-46
2023/04/13 01:05:03;;;;;;;;;;;9.70;64.90;;;5.15;94.46;94603.66;5037169;28;19932;-47
2023/04/13 01:07:54;;;;;;;;;;;9.60;64.80;;;5.12;94.49;94594.38;5037640;28;19943;-46
2023/04/13 01:10:31;;;;;;;;;;;9.60;64.80;;;5.04;93.74;94602.75;5038239;28;19947;-46
2023/04/13 01:13:20;;;;;;;;;;;9.60;64.90;;;5.05;93.91;94596.44;5016818;28;20038;-46
2023/04/13 01:16:04;;;;;;;;;;;9.50;64.70;;;5.00;93.90;94594.56;5018195;28;19919;-50
2023/04/13 01:18:37;;;;;;;;;;;9.50;64.80;;;4.96;94.67;94595.34;5016234;28;19904;-46
2023/04/13 01:21:05;;;;;;;;;;;9.50;64.70;;;4.93;94.86;94598.47;5018298;28;20322;-48
2023/04/13 01:24:01;;;;;;;;;;;9.40;64.60;;;4.87;94.71;94603.69;5021138;28;19928;-48
2023/04/13 01:27:02;;;;;;;;;;;9.40;65.40;;;4.82;94.36;94597.59;5017767;28;19995;-47
2023/04/13 01:29:30;;;;;;;;;;;9.40;64.60;;;4.78;93.52;94612.34;4997400;28;20297;-49
2023/04/13 01:31:57;;;;;;;;;;;9.40;64.60;;;4.76;93.08;94609.13;5036272;28;19905;-48
2023/04/13 01:34:25;;;;;;;;;;;9.40;64.60;;;4.79;93.10;94609.44;5034908;28;19939;-52
2023/04/13 01:36:51;;;;;;;;;;;9.30;64.60;;;4.77;91.38;94598.34;5033689;28;19909;-46
2023/04/13 01:39:21;;;;;;;;;;;9.30;64.70;;;4.82;92.42;94605.50;5016870;28;19911;-46
2023/04/13 01:41:46;;;;;;;;;;;9.40;64.70;;;4.82;91.26;94602.84;5038916;28;19904;-47
2023/04/13 01:44:13;;;;;;;;;;;9.30;64.60;;;4.80;90.57;94607.63;5014558;28;20294;-46
2023/04/13 01:46:46;;;;;;;;;;;9.40;64.60;;;4.81;90.77;94614.47;5012725;28;19920;-46
2023/04/13 01:49:19;;;;;;;;;;;9.40;64.50;;;4.78;89.75;94613.13;5013478;28;19905;-47
2023/04/13 01:51:49;;;;;;;;;;;9.40;65.20;;;4.83;90.08;94618.47;5013489;28;19909;-47
2023/04/13 01:54:21;;;;;;;;;;;9.40;64.40;;;4.84;90.07;94621.88;5028337;28;19959;-47
2023/04/13 01:56:49;;;;;;;;;;;9.40;64.40;;;4.81;88.73;94622.38;5034124;28;19908;-46
2023/04/13 01:59:15;;;;;;;;;;;9.40;64.30;;;4.78;87.30;94623.69;5028514;28;19916;-47
2023/04/13 02:01:41;;;;;;;;;;;9.40;64.30;;;4.82;87.72;94627.41;5014262;28;19916;-46
2023/04/13 02:04:08;;;;;;;;;;;9.40;64.20;;;4.82;86.84;94623.97;5013934;28;20046;-46
2023/04/13 02:06:38;;;;;;;;;;;9.40;64.10;;;4.79;86.24;94632.38;5029868;28;19904;-47
2023/04/13 02:09:07;;;;;;;;;;;9.40;64.00;;;4.84;87.20;94621.88;5033702;28;19992;-47
2023/04/13 02:11:37;;;;;;;;;;;9.40;63.90;;;4.83;87.14;94628.22;5032759;28;19915;-46
2023/04/13 02:14:03;;;;;;;;;;;9.40;63.90;;;4.84;86.30;94637.72;5033990;28;19970;-46
2023/04/13 02:16:29;;;;;;;;;;;9.40;63.90;;;4.83;85.32;94634.28;5032699;28;19909;-52
2023/04/13 02:18:57;;;;;;;;;;;9.40;63.90;;;4.86;85.34;94633.78;5013882;28;20386;-46
2023/04/13 02:21:22;;;;;;;;;;;9.40;63.80;;;4.87;85.03;94632.72;5013911;28;19909;-48
2023/04/13 02:23:48;;;;;;;;;;;9.40;63.70;;;4.89;84.35;94632.50;5023973;28;19911;-46
2023/04/13 02:26:15;;;;;;;;;;;9.40;63.70;;;4.90;83.77;94638.56;5033562;28;19909;-47
2023/04/13 02:28:41;;;;;;;;;;;9.40;63.60;;;4.88;83.38;94636.94;5032391;28;20425;-51
2023/04/13 02:31:07;;;;;;;;;;;9.50;64.40;;;4.94;84.13;94634.38;5033319;28;20614;-50
2023/04/13 02:33:35;;;;;;;;;;;9.50;63.50;;;4.96;84.00;94632.28;5033385;28;19908;-49
2023/04/13 02:36:02;;;;;;;;;;;9.50;63.40;;;4.95;83.14;94633.31;5032258;28;20305;-51
2023/04/13 02:38:29;;;;;;;;;;;9.50;64.20;;;4.97;84.20;94633.88;5032978;28;19987;-50
2023/04/13 02:40:59;;;;;;;;;;;9.50;63.30;;;4.96;84.49;94632.28;5032535;28;19946;-49
2023/04/13 02:43:28;;;;;;;;;;;9.50;63.20;;;4.95;84.34;94638.59;5033180;28;19950;-51
2023/04/13 02:45:54;;;;;;;;;;;9.50;63.20;;;4.92;83.48;94636.44;5032649;28;20031;-50
2023/04/13 02:48:20;;;;;;;;;;;9.50;63.10;;;4.92;83.32;94633.81;5027099;28;19905;-50
2023/04/13 02:50:47;;;;;;;;;;;9.50;63.00;;;4.89;82.86;94629.84;5013512;28;19904;-48
2023/04/13 02:53:15;;;;;;;;;;;9.50;62.90;;;4.90;83.31;94630.66;5011490;28;19905;-47
2023/04/13 02:55:42;;;;;;;;;;;9.50;62.80;;;4.92;82.99;94631.16;5012874;28;20547;-46
2023/04/13 02:58:11;;;;;;;;;;;9.50;62.80;;;4.91;83.88;94622.47;5013082;28;20006;-46
2023/04/13 03:00:37;;;;;;;;;;;9.60;62.80;;;4.91;84.17;94621.66;5029669;28;20379;-46
2023/04/13 03:03:05;;;;;;;;;;;9.50;62.70;;;4.85;82.78;94624.25;5032517;28;20053;-47
2023/04/13 03:05:31;;;;;;;;;;;9.50;62.60;;;4.85;80.96;94631.38;5032258;28;20309;-46
2023/04/13 03:07:58;;;;;;;;;;;9.50;62.60;;;4.83;80.98;94625.59;5032545;28;19904;-46
2023/04/13 03:10:24;;;;;;;;;;;9.50;62.50;;;4.85;79.86;94620.81;5033058;28;20385;-46
2023/04/13 03:12:50;;;;;;;;;;;9.50;62.40;;;4.84;78.04;94624.53;5031678;28;19912;-48
2023/04/13 03:15:17;;;;;;;;;;;9.50;62.30;;;4.85;78.18;94626.91;5032734;28;19916;-48
2023/04/13 03:17:44;;;;;;;;;;;9.50;62.20;;;4.86;78.56;94628.50;5031723;28;19997;-46
2023/04/13 03:20:12;;;;;;;;;;;9.50;62.10;;;4.85;78.40;94628.75;5032405;28;19947;-51
2023/04/13 03:22:38;;;;;;;;;;;9.40;62.00;;;4.82;78.36;94629.25;5031825;28;19912;-50
2023/04/13 03:25:07;;;;;;;;;;;9.40;61.90;;;4.82;78.45;94630.03;5032520;28;20271;-46
2023/04/13 03:27:34;;;;;;;;;;;9.40;61.80;;;4.77;78.16;94619.47;5032446;28;19920;-51
2023/04/13 03:30:01;;;;;;;;;;;9.40;61.80;;;4.77;77.63;94623.94;5031893;28;19904;-48
2023/04/13 03:32:26;;;;;;;;;;;9.40;61.80;;;4.77;77.91;94621.31;5032187;28;20019;-50
2023/04/13 03:34:52;;;;;;;;;;;9.40;61.70;;;4.77;78.44;94622.09;5030247;28;20067;-46
2023/04/13 03:37:18;;;;;;;;;;;9.40;61.60;;;4.78;77.26;94622.88;5031746;28;19908;-46
2023/04/13 03:39:44;;;;;;;;;;;9.40;61.70;;;4.77;77.73;94627.38;5032367;28;20342;-51
2023/04/13 03:42:10;;;;;;;;;;;9.40;61.60;;;4.79;78.13;94625.25;5031415;28;19904;-49
2023/04/13 03:44:36;;;;;;;;;;;9.40;61.50;;;4.80;78.97;94621.59;5032070;28;19992;-47
2023/04/13 03:47:02;;;;;;;;;;;9.40;61.40;;;4.72;77.45;94618.63;5030687;28;19923;-46
2023/04/13 03:49:31;;;;;;;;;;;9.40;61.30;;;4.72;77.16;94622.03;5017184;28;20872;-46
2023/04/13 03:51:57;;;;;;;;;;;9.40;61.20;;;4.71;77.94;94617.81;5012438;28;19905;-47
2023/04/13 03:54:24;;;;;;;;;;;9.40;61.10;;;4.69;77.54;94611.19;5026679;28;19905;-46
2023/04/13 03:56:50;;;;;;;;;;;9.30;61.00;;;4.64;77.14;94612.75;5031498;28;19958;-46
2023/04/13 03:59:16;;;;;;;;;;;9.30;61.00;;;4.60;77.58;94618.78;5029308;28;19912;-46
2023/04/13 04:01:42;;;;;;;;;;;9.30;60.90;;;4.58;78.30;94618.25;5024273;28;20263;-50
2023/04/13 04:04:07;;;;;;;;;;;9.20;60.80;;;4.49;78.48;94620.53;5031421;28;19944;-48
2023/04/13 04:06:33;;;;;;;;;;;9.20;60.90;;;4.44;78.96;94619.69;5030348;28;20290;-46
2023/04/13 04:08:59;;;;;;;;;;;9.10;60.70;;;4.40;79.63;94622.03;5031908;28;20544;-47
2023/04/13 04:11:25;;;;;;;;;;;9.10;60.70;;;4.32;79.18;94627.72;5030853;28;19909;-47
2023/04/13 04:13:50;;;;;;;;;;;9.00;60.70;;;4.28;79.67;94627.44;5031579;28;20003;-47
2023/04/13 04:16:16;;;;;;;;;;;9.00;60.70;;;4.26;80.31;94626.91;5031075;28;19939;-48
2023/04/13 04:18:42;;;;;;;;;;;9.00;60.70;;;4.16;80.66;94624.13;5029827;28;19908;-46
2023/04/13 04:21:10;;;;;;;;;;;8.90;60.60;;;4.07;81.27;94626.41;5031363;28;19905;-48
2023/04/13 04:23:36;;;;;;;;;;;8.80;60.50;;;3.93;81.54;94623.38;5025709;28;19912;-46
2023/04/13 04:26:03;;;;;;;;;;;8.70;60.50;;;3.86;82.00;94630.66;5011758;28;19909;-47
2023/04/13 04:28:30;;;;;;;;;;;8.70;60.50;;;3.77;82.94;94626.06;5010992;28;19905;-50
2023/04/13 04:31:00;;;;;;;;;;;8.60;60.50;;;3.65;83.48;94629.59;5030269;28;19914;-45
2023/04/13 04:33:26;;;;;;;;;;;8.50;60.50;;;3.60;84.00;94636.63;5031555;28;20401;-46
2023/04/13 04:35:52;;;;;;;;;;;8.40;61.40;;;3.60;84.46;94645.34;5030225;28;20279;-46
2023/04/13 04:38:23;;;;;;;;;;;8.40;60.70;;;3.52;83.96;94640.50;5031227;28;20393;-46
2023/04/13 04:40:49;;;;;;;;;;;8.40;60.80;;;3.53;84.38;94636.81;5030427;28;19913;-46
2023/04/13 04:43:16;;;;;;;;;;;8.40;60.90;;;3.52;84.74;94643.13;5031010;28;19909;-46
2023/04/13 04:45:44;;;;;;;;;;;8.30;60.90;;;3.54;84.67;94648.16;5031381;28;20373;-46
2023/04/13 04:48:10;;;;;;;;;;;8.30;60.90;;;3.54;84.34;94646.34;5026247;28;19905;-48
2023/04/13 04:50:37;;;;;;;;;;;8.30;60.90;;;3.54;84.66;94648.97;5010532;28;20007;-50
2023/04/13 04:53:04;;;;;;;;;;;8.30;61.70;;;3.48;84.30;94644.66;5014169;28;19963;-47
2023/04/13 04:55:30;;;;;;;;;;;8.30;60.90;;;3.49;83.65;94648.88;5031260;28;19904;-48
2023/04/13 04:57:55;;;;;;;;;;;8.30;60.90;;;3.53;83.51;94657.09;5030688;28;19911;-47
2023/04/13 05:00:24;;;;;;;;;;;8.40;61.00;;;3.55;82.91;94660.28;5030263;28;19905;-48
2023/04/13 05:02:50;;;;;;;;;;;8.30;60.90;;;3.58;82.21;94654.53;5030590;28;19911;-50
2023/04/13 05:05:16;;;;;;;;;;;8.40;61.00;;;3.63;82.98;94660.66;5030364;28;19998;-48
2023/04/13 05:07:43;;;;;;;;;;;8.40;60.90;;;3.66;83.28;94660.16;5046130;28;20525;-47
2023/04/13 05:10:09;;;;;;;;;;;8.50;61.00;;;3.68;80.84;94668.63;5027163;28;20003;-48
2023/04/13 05:12:36;;;;;;;;;;;8.50;60.80;;;3.75;80.48;94663.19;5032647;28;19915;-48
2023/04/13 05:15:03;;;;;;;;;;;8.50;61.60;;;3.78;79.54;94667.16;5034502;28;20426;-46
2023/04/13 05:17:29;;;;;;;;;;;8.60;60.80;;;3.85;78.97;94665.16;5033191;28;19913;-45
2023/04/13 05:19:55;;;;;;;;;;;8.70;60.70;;;3.90;76.66;94663.38;5031156;28;19912;-46
2023/04/13 05:22:21;;;;;;;;;;;8.70;60.60;;;3.96;76.72;94671.34;5033813;28;19905;-46
2023/04/13 05:24:47;;;;;;;;;;;8.70;60.50;;;4.02;76.43;94668.53;5033821;28;19908;-46
2023/04/13 05:27:14;;;;;;;;;;;8.80;60.50;;;4.07;76.39;94675.69;5033588;28;19905;-46
2023/04/13 05:29:40;;;;;;;;;;;8.80;60.30;;;4.10;76.77;94677.84;5033149;28;20378;-46
2023/04/13 05:32:06;;;;;;;;;;;8.80;60.20;;;4.14;76.35;94685.03;5033669;28;19970;-46
2023/04/13 05:34:34;;;;;;;;;;;8.90;60.10;;;4.18;76.23;94680.06;5033932;28;20477;-47
2023/04/13 05:37:00;;;;;;;;;;;8.90;60.00;;;4.22;76.80;94678.50;5020762;28;19934;-46
2023/04/13 05:39:26;;;;;;;;;;;9.00;60.00;;;4.27;76.65;94686.47;5032592;28;20465;-47
2023/04/13 05:41:52;;;;;;;;;;;9.00;59.90;;;4.30;76.87;94690.47;5022962;28;20003;-49
2023/04/13 05:44:18;;;;;;;;;;;9.00;59.80;;;4.32;76.70;94697.06;5016379;28;19920;-47
2023/04/13 05:46:44;;;;;;;;;;;9.10;59.80;;;4.25;75.76;94690.41;5044414;23;19924;-53
2023/04/13 05:49:09;;;;;;;;;;;9.10;59.70;;;4.27;76.85;94704.16;5032400;28;19924;-55
2023/04/13 05:51:37;;;;;;;;;;;9.20;59.60;;;4.30;77.88;94693.91;5034392;28;19912;-55
2023/04/13 05:54:02;;;;;;;;;;;9.20;59.50;;;4.27;75.89;94694.41;5033004;28;20061;-53
2023/04/13 05:56:28;;;;;;;;;;;9.20;59.50;;;4.29;75.65;94692.28;5033966;28;20007;-55
2023/04/13 05:58:54;;;;;;;;;;;9.30;59.40;;;4.34;75.49;94694.19;5030391;28;20827;-55
2023/04/13 06:01:22;;;;;;;;;;;9.30;59.40;;;4.43;76.35;94692.72;5014358;28;19904;-55
2023/04/13 06:03:48;;;;;;;;;;;9.40;59.30;;;4.43;75.44;94694.56;5012671;28;20001;-53
2023/04/13 06:06:16;;;;;;;;;;;9.40;59.20;;;4.45;75.48;94695.91;5013486;28;20418;-54
2023/04/13 06:08:42;;;;;;;;;;;9.40;59.10;;;4.49;74.01;94699.66;5012355;28;19908;-54
2023/04/13 06:11:09;;;;;;;;;;;9.50;59.00;;;4.51;73.44;94702.84;5013372;28;19927;-52
2023/04/13 06:13:35;;;;;;;;;;;9.50;58.90;;;4.53;73.03;94699.94;5013845;28;19912;-52
2023/04/13 06:16:01;;;;;;;;;;;9.50;58.80;;;4.59;73.34;94698.97;5014025;28;19909;-51
2023/04/13 06:18:27;;;;;;;;;;;9.60;58.80;;;4.59;73.54;94701.59;5012965;28;19909;-49
2023/04/13 06:20:54;;;;;;;;;;;9.60;58.60;;;4.58;72.78;94682.34;5013158;28;20003;-50
2023/04/13 06:23:21;;;;;;;;;;;9.60;58.50;;;4.59;73.01;94683.91;5011576;28;19905;-52
2023/04/13 06:25:47;;;;;;;;;;;9.60;58.40;;;4.59;71.26;94681.28;5012708;28;19905;-50
2023/04/13 06:28:12;;;;;;;;;;;9.60;58.30;;;4.62;72.26;94672.09;5013427;28;19994;-52
2023/04/13 06:30:38;;;;;;;;;;;9.70;58.20;;;4.69;71.38;94672.66;5013170;28;19975;-54
2023/04/13 06:33:05;;;;;;;;;;;9.70;58.10;;;4.72;72.75;94682.72;5013772;28;19904;-54
2023/04/13 06:35:32;;;;;;;;;;;9.70;57.90;;;4.79;71.90;94683.31;5012722;28;19905;-51
2023/04/13 06:38:00;;;;;;;;;;;9.80;58.00;;;4.85;71.29;94681.53;5013537;28;20543;-52
2023/04/13 06:40:27;;;;;;;;;;;9.90;57.70;;;4.86;70.20;94672.59;4996326;28;19916;-51
2023/04/13 06:42:53;;;;;;;;;;;10.00;57.60;;;4.87;69.73;94674.16;4991694;28;20249;-52
2023/04/13 06:45:20;;;;;;;;;;;10.10;57.70;;;4.90;70.42;94665.75;4993790;28;19905;-53
2023/04/13 06:47:46;;;;;;;;;;;10.20;57.20;;;4.95;71.56;94667.63;4997926;28;19927;-54
2023/04/13 06:50:14;;;;;;;;;;;10.30;57.60;;;5.03;71.60;94667.16;5005366;28;19904;-55
2023/04/13 06:52:46;;;;;;;;;;;10.30;56.90;;;4.98;70.27;94670.56;5010665;28;19944;-51
2023/04/13 06:55:14;;;;;;;;;;;10.30;56.80;;;4.92;70.46;94665.47;5013147;28;19905;-53
2023/04/13 06:57:40;;;;;;;;;;;10.30;56.60;;;4.92;69.88;94671.59;5012771;28;19944;-55
2023/04/13 07:00:09;;;;;;;;;;;10.30;56.50;;;4.96;70.09;94675.31;5012738;28;19909;-52
2023/04/13 07:02:35;;;;;;;;;;;10.30;56.50;;;5.01;69.71;94667.41;5012699;28;19967;-53
2023/04/13 07:05:01;;;;;;;;;;;10.30;56.50;;;5.06;70.22;94679.88;5012240;28;20431;-54
2023/04/13 07:07:27;;;;;;;;;;;10.30;56.50;;;5.08;69.36;94670.66;5013715;28;19944;-51
2023/04/13 07:09:53;;;;;;;;;;;10.40;56.50;;;5.16;68.87;94685.22;5012970;28;19951;-51
2023/04/13 07:12:19;;;;;;;;;;;10.40;56.40;;;5.25;68.62;94678.44;5002507;28;19955;-50
2023/04/13 07:14:45;;;;;;;;;;;10.60;56.40;;;5.38;67.75;94673.75;5012879;28;19905;-54
2023/04/13 07:17:12;;;;;;;;;;;10.70;56.30;;;5.56;68.07;94676.00;5007835;28;20288;-53
2023/04/13 07:19:45;;;;;;;;;;;10.90;56.20;;;5.73;67.34;94681.13;5008307;28;19909;-50
2023/04/13 07:22:11;;;;;;;;;;;11.10;56.20;;;5.83;66.33;94678.56;4993246;28;20363;-54
2023/04/13 07:24:37;;;;;;;;;;;11.30;56.00;;;5.94;65.94;94674.13;5008174;28;19919;-54
2023/04/13 07:27:03;;;;;;;;;;;11.50;55.80;;;5.97;65.42;94682.34;5012622;28;19905;-53
2023/04/13 07:29:28;;;;;;;;;;;11.70;55.50;;;6.20;66.19;94685.59;4990518;28;19905;-55
2023/04/13 07:32:02;;;;;;;;;;;11.90;55.30;;;6.38;64.16;94687.00;4992604;28;19905;-55
2023/04/13 07:34:29;;;;;;;;;;;12.20;55.20;;;6.54;63.42;94680.69;4992542;28;19967;-54
2023/04/13 07:36:55;;;;;;;;;;;12.40;55.00;;;6.69;64.29;94675.44;5009217;28;19936;-55
2023/04/13 07:39:21;;;;;;;;;;;12.60;54.80;;;6.78;62.40;94682.88;5012124;28;20298;-55
2023/04/13 07:41:47;;;;;;;;;;;12.80;54.60;;;6.95;62.48;94686.06;5011302;28;19905;-55
2023/04/13 07:44:14;;;;;;;;;;;13.00;54.40;;;7.13;63.12;94684.78;5027082;28;20260;-56
2023/04/13 07:46:40;;;;;;;;;;;13.30;54.30;;;7.21;61.77;94681.59;5009877;28;19913;-51
2023/04/13 07:49:06;;;;;;;;;;;13.50;54.10;;;7.37;61.79;94683.19;5011835;28;19908;-54
2023/04/13 07:51:33;;;;;;;;;;;13.60;53.80;;;7.54;61.26;94682.91;5012332;28;20287;-53
2023/04/13 07:54:00;;;;;;;;;;;13.80;53.50;;;7.57;61.25;94682.38;5011100;28;19912;-52
2023/04/13 07:56:26;;;;;;;;;;;14.00;53.20;;;7.53;58.67;94681.31;5010857;28;19909;-51
2023/04/13 07:58:52;;;;;;;;;;;14.10;52.90;;;7.62;60.28;94687.66;5010849;28;19905;-53
2023/04/13 08:01:18;;;;;;;;;;;14.20;52.60;;;7.65;59.36;94689.78;5012603;28;20033;-51
2023/04/13 08:03:44;;;;;;;;;;;14.30;52.40;;;7.46;57.80;94687.94;5012139;28;20375;-56
2023/04/13 08:06:10;;;;;;;;;;;14.30;52.10;;;7.38;59.36;94694.56;5011397;28;19944;-55
2023/04/13 08:08:36;;;;;;;;;;;14.30;51.50;;;7.42;58.31;94691.13;5011669;28;20022;-54
2023/04/13 08:11:02;;;;;;;;;;;14.30;50.90;;;7.50;58.69;94683.72;5011262;28;19960;-55
2023/04/13 08:13:29;;;;;;;;;;;14.30;50.70;;;7.80;60.19;94701.41;5011487;28;20386;-55
2023/04/13 08:15:56;;;;;;;;;;;14.40;50.80;;;7.91;58.00;94697.69;5011971;28;19962;-53
2023/04/13 08:18:26;;;;;;;;;;;14.50;50.80;;;8.09;58.55;94693.66;5010633;28;19904;-55
2023/04/13 08:20:55;;;;;;;;;;;14.60;50.60;;;8.19;58.91;94700.81;5011886;28;19957;-55
2023/04/13 08:23:22;;;;;;;;;;;14.80;50.60;;;7.98;58.13;94705.34;5009515;28;19927;-55
2023/04/13 08:25:48;;;;;;;;;;;14.90;50.20;;;8.05;59.85;94705.88;5012064;28;19955;-56
2023/04/13 08:28:14;;;;;;;;;;;14.90;50.00;;;8.18;57.04;94705.31;5011433;28;20375;-55
2023/04/13 08:30:41;;;;;;;;;;;15.00;49.90;;;8.12;57.34;94703.75;4929294;28;20503;-56
2023/04/13 08:33:07;;;;;;;;;;;15.00;49.60;;;8.43;58.71;94698.34;4953251;28;19913;-52
2023/04/13 08:35:37;;;;;;;;;;;15.20;49.60;;;8.32;57.85;94700.22;4959825;28;19910;-56
2023/04/13 08:38:05;;;;;;;;;;;15.20;49.60;;;8.16;55.36;94694.16;4971317;28;20008;-56
2023/04/13 08:40:37;;;;;;;;;;;15.10;49.00;;;8.13;56.51;94707.19;4972702;28;19906;-55
2023/04/13 08:43:04;;;;;;;;;;;15.10;48.70;;;8.02;57.45;94706.41;4972339;28;20053;-52
2023/04/13 08:45:30;;;;;;;;;;;15.00;48.40;;;8.09;57.63;94698.97;4976111;28;19906;-49
2023/04/13 08:48:01;;;;;;;;;;;14.90;48.50;;;8.21;56.27;94699.47;4984781;28;20260;-53
2023/04/13 08:50:27;;;;;;;;;;;14.70;48.70;;;8.10;56.01;94700.56;4995991;28;20323;-51
2023/04/13 08:52:54;;;;;;;;;;;14.60;48.80;;;7.98;55.96;94698.19;4992759;28;19912;-50
2023/04/13 08:55:21;;;;;;;;;;;14.40;48.70;;;8.12;56.75;94698.44;4974906;28;20351;-50
2023/04/13 08:57:49;;;;;;;;;;;14.30;48.90;;;7.98;56.06;94698.19;4975489;28;19921;-55
2023/04/13 09:00:20;;;;;;;;;;;14.20;49.00;;;7.75;56.98;94691.63;4963556;28;19913;-55
2023/04/13 09:02:47;;;;;;;;;;;14.10;49.10;;;7.75;59.33;94699.56;4956698;28;20052;-54
2023/04/13 09:05:15;;;;;;;;;;;13.90;48.90;;;7.91;58.42;94695.03;4960375;28;19909;-56
2023/04/13 09:07:52;;;;;;;;;;;13.90;49.20;;;7.93;60.58;94694.75;4975645;28;19916;-56
2023/04/13 09:10:19;;;;;;;;;;;13.90;49.40;;;7.85;64.78;94691.59;4971566;28;19906;-50
2023/04/13 09:12:46;;;;;;;;;;;14.00;49.40;;;7.84;65.94;94697.19;4967671;28;19921;-55
2023/04/13 09:15:14;;;;;;;;;;;14.30;49.30;;;8.07;62.68;94688.63;4976291;28;19905;-55
2023/04/13 09:17:40;;;;;;;;;;;14.50;49.20;;;8.22;61.86;94697.59;4969483;28;19917;-56
2023/04/13 09:20:15;;;;;;;;;;;14.80;49.00;;;8.40;64.36;94698.88;4956554;28;19948;-52
2023/04/13 09:22:41;;;;;;;;;;;15.00;49.00;;;8.47;60.28;94696.75;4956200;28;19912;-55
2023/04/13 09:25:21;;;;;;;;;;;15.20;48.90;;;8.51;61.47;94695.91;4975390;28;20398;-56
2023/04/13 09:27:47;;;;;;;;;;;15.40;48.80;;;8.41;59.56;94698.63;4975934;28;19909;-55
2023/04/13 09:30:14;;;;;;;;;;;15.40;48.50;;;8.40;59.59;94697.03;5002364;28;19906;-50
2023/04/13 09:32:40;;;;;;;;;;;15.50;48.40;;;8.30;59.87;94699.69;4994852;28;19963;-54
2023/04/13 09:35:10;;;;;;;;;;;15.40;48.20;;;8.37;59.98;94702.88;4985944;28;19943;-53
2023/04/13 09:37:43;;;;;;;;;;;15.40;48.30;;;8.51;60.37;94700.44;4974924;28;19945;-52
2023/04/13 09:40:15;;;;;;;;;;;15.50;48.30;;;8.74;60.43;94702.47;4973308;28;19949;-55
2023/04/13 09:43:08;;;;;;;;;;;15.70;48.30;;;8.85;59.96;94713.00;4974241;28;19906;-51
2023/04/13 09:45:43;;;;;;;;;;;15.80;48.20;;;8.83;60.80;94709.81;4975600;28;19913;-54
2023/04/13 09:48:20;;;;;;;;;;;15.90;48.10;;;8.73;61.02;94698.19;4974188;28;19918;-53
2023/04/13 09:51:01;;;;;;;;;;;15.90;47.90;;;8.75;62.05;94705.91;4975881;28;19910;-52
2023/04/13 09:53:41;;;;;;;;;;;15.90;47.80;;;8.78;61.69;94702.69;4973050;28;20399;-53
2023/04/13 09:56:06;;;;;;;;;;;15.90;47.90;;;8.79;60.90;94701.63;4972851;28;19913;-50
2023/04/13 09:58:44;;;;;;;;;;;15.90;48.00;;;8.73;63.42;94697.41;4974675;28;20364;-56
2023/04/13 10:01:10;;;;;;;;;;;15.90;47.90;;;8.75;61.44;94696.06;4955817;28;19906;-56
2023/04/13 10:03:37;;;;;;;;;;;15.80;47.90;;;8.93;61.51;94689.34;4954123;28;19945;-53
2023/04/13 10:06:07;;;;;;;;;;;15.90;47.90;;;9.30;60.00;94687.19;4966304;28;19912;-54
2023/04/13 10:08:36;;;;;;;;;;;16.30;47.90;;;9.54;61.42;94679.31;4974758;28;19906;-55
2023/04/13 10:11:03;;;;;;;;;;;16.60;47.90;;;9.78;59.07;94679.34;4991816;28;19905;-55
2023/04/13 10:14:07;;;;;;;;;;;16.90;47.80;;;9.88;55.50;94680.03;4993968;28;19909;-53
2023/04/13 10:16:42;;;;;;;;;;;17.30;47.60;;;9.58;53.36;94677.66;4992977;28;19945;-53
2023/04/13 10:19:16;;;;;;;;;;;17.50;46.90;;;9.96;53.83;94663.47;4955485;28;19906;-54
2023/04/13 10:21:47;;;;;;;;;;;17.60;46.50;;;9.97;52.59;94661.59;4954511;28;20268;-56
2023/04/13 10:24:15;;;;;;;;;;;17.70;46.20;;;10.07;51.77;94658.81;4966026;28;19905;-56
2023/04/13 10:26:45;;;;;;;;;;;17.80;45.70;;;10.51;53.21;94651.69;4974964;28;19920;-56
2023/04/13 10:29:13;;;;;;;;;;;18.10;45.50;;;10.85;52.24;94660.28;4977863;28;20289;-54
2023/04/13 10:31:50;;;;;;;;;;;18.70;45.40;;;11.43;52.45;94653.78;4994143;28;20535;-55
2023/04/13 10:34:27;;;;;;;;;;;19.50;45.10;;;11.70;52.14;94653.06;4993849;28;19955;-52
2023/04/13 10:36:57;;;;;;;;;;;20.40;44.30;;;12.25;52.38;94644.31;4975564;28;19917;-53
2023/04/13 10:39:24;;;;;;;;;;;20.80;43.90;;;12.35;47.96;94648.69;4974175;28;19906;-52
2023/04/13 10:42:06;;;;;;;;;;;21.10;43.80;;;12.47;48.36;94646.28;4973541;28;20349;-56
2023/04/13 10:44:52;;;;;;;;;;;21.20;43.60;;;12.27;45.84;94634.16;4961369;28;20273;-56
2023/04/13 10:47:21;;;;;;;;;;;21.20;43.20;;;12.37;47.00;94635.81;4972953;28;20487;-54
2023/04/13 10:49:50;;;;;;;;;;;21.10;42.80;;;12.67;45.93;94640.53;4974085;28;19909;-53
2023/04/13 10:52:16;;;;;;;;;;;21.10;42.40;;;12.57;47.14;94638.09;4973912;28;20440;-53
2023/04/13 10:54:43;;;;;;;;;;;21.00;42.20;;;12.46;47.57;94642.03;4972052;28;20395;-52
2023/04/13 10:57:10;;;;;;;;;;;20.90;42.30;;;12.33;45.64;94635.63;4973352;28;19916;-52
2023/04/13 10:59:48;;;;;;;;;;;20.80;42.20;;;12.26;46.99;94641.38;4972301;28;20368;-56
2023/04/13 11:02:18;;;;;;;;;;;20.60;42.00;;;11.62;45.64;94629.72;4962862;28;20352;-56
2023/04/13 11:04:46;;;;;;;;;;;20.40;41.50;;;11.43;48.47;94635.13;4954582;28;19946;-54
2023/04/13 11:07:22;;;;;;;;;;;20.00;41.20;;;11.33;47.02;94636.06;4991625;28;19936;-55
2023/04/13 11:09:51;;;;;;;;;;;19.60;41.20;;;11.42;49.40;94632.75;4984879;28;19948;-55
2023/04/13 11:12:18;;;;;;;;;;;19.30;41.40;;;11.09;52.66;94638.88;4976523;28;19906;-52
2023/04/13 11:14:48;;;;;;;;;;;19.10;41.70;;;10.84;51.44;94632.06;4993284;28;19909;-51
2023/04/13 11:17:18;;;;;;;;;;;18.80;42.60;;;10.89;50.14;94626.63;4991335;28;19909;-55
2023/04/13 11:19:52;;;;;;;;;;;18.60;42.00;;;11.26;45.44;94625.00;4992835;28;19909;-52
2023/04/13 11:22:22;;;;;;;;;;;18.80;42.20;;;11.82;46.74;94615.25;4992790;28;19912;-52
2023/04/13 11:24:49;;;;;;;;;;;19.40;42.10;;;12.31;44.50;94619.09;4974089;28;19906;-54
2023/04/13 11:27:23;;;;;;;;;;;20.20;42.10;;;12.56;41.67;94612.44;4973544;28;20368;-52
2023/04/13 11:30:07;;;;;;;;;;;20.80;41.60;;;13.03;45.80;94621.00;4972775;28;20015;-52
2023/04/13 11:32:38;;;;;;;;;;;21.30;41.30;;;13.32;39.57;94615.28;4972207;28;19915;-51
2023/04/13 11:35:15;;;;;;;;;;;21.80;41.10;;;13.83;40.46;94605.97;4972719;28;19920;-52